< < Back
Terminal Aerodrome Forecast


Current Version              Previous Versions:   1  2  3  4  5  6  7  8  9  

Terminal Aerodrome Forecast

941
FTUS42 KJAX 011900 AAA
TAFJAX
TAF AMD
KJAX 011906Z 0119/0218 13008KT P6SM VCTS SCT040CB BKN250
      TEMPO 0119/0121 VRB10G20KT 5SM TSRA BKN030CB
     FM020000 15005KT P6SM FEW040 BKN250
     FM020300 VRB03KT P6SM SCT250
     FM021300 23003KT P6SM SCT030=

Latest METAR

938
SAUS80 KWBC 020800 CCA
MTRJAX
METAR KJAX 020756Z 16003KT 10SM FEW060 FEW250 23/23 A3003 RMK AO2 SLP169
T02330228


USA.gov is the U.S. government's official web portal to all federal, state and local government web resources and services.